Holyoke, Minnesota
Current Conditions -  °F | °C
As of 6:36 AM on Thursday 23 Oct 2014 (Local Time) from KCOQ Reporting Station
Drizzle Drizzle  
Wind Chill: 43°   Ceiling: 800
Heat Index: 46°   Visibility: 7mi
Dew Point: 45°   Wind: 7mph
Humidity: 93%   Direction: 180°S
Pressure: 29.96"   Gusts: NA
Location:  46.47°N, 92.39°W
Report Text: KCOQ 231136Z AUTO 18006KT 7SM -DZ OVC008 08/07 A2996 RMK AO2
Loading
Personal Weather Stations






























Interactive Weather Map
Tropical Storm Tracking
New forecast layout! Learn more

10-Day Weather Forecast

Advertisements
Track Severe Weather on mobile